createdAt,value
2018-07-08T00:00:36.084Z,50.05
2018-07-08T00:01:36.260Z,50.78
2018-07-08T00:02:36.425Z,46.39
2018-07-08T00:03:36.601Z,50.05
2018-07-08T00:04:36.777Z,49.56
2018-07-08T00:05:36.963Z,50.78
2018-07-08T00:06:37.128Z,55.42
2018-07-08T00:07:37.298Z,61.77
2018-07-08T00:08:37.465Z,64.70
2018-07-08T00:12:19.951Z,71.29
2018-07-08T00:13:20.116Z,51.27
2018-07-08T00:14:20.286Z,50.78
2018-07-08T00:15:20.458Z,66.65
2018-07-08T00:16:20.624Z,62.01
2018-07-08T00:17:20.791Z,49.56
2018-07-08T00:18:20.961Z,51.03
2018-07-08T00:19:21.129Z,60.06
2018-07-08T00:20:21.293Z,52.49
2018-07-08T00:21:21.462Z,62.74
2018-07-08T00:22:21.652Z,54.93
2018-07-08T00:23:21.825Z,59.33
2018-07-08T00:24:21.992Z,51.76
2018-07-08T00:25:22.164Z,49.07
2018-07-08T00:29:04.604Z,52.00
2018-07-08T00:30:04.771Z,48.34
2018-07-08T00:31:04.937Z,58.84
2018-07-08T00:32:05.103Z,67.87
2018-07-08T00:33:05.291Z,48.83
2018-07-08T00:34:05.462Z,52.73
2018-07-08T00:35:05.666Z,62.74
2018-07-08T00:36:05.785Z,59.81
2018-07-08T00:37:05.953Z,59.57
2018-07-08T00:38:06.112Z,59.57
2018-07-08T00:39:06.285Z,61.77
2018-07-08T00:40:06.453Z,51.03
2018-07-08T00:41:06.618Z,50.29
2018-07-08T00:42:06.791Z,64.21
2018-07-08T00:47:47.537Z,50.05
2018-07-08T00:48:47.690Z,52.00
2018-07-08T00:49:47.858Z,51.51
2018-07-08T00:50:48.028Z,58.11
2018-07-08T00:51:48.192Z,48.34
2018-07-08T00:52:48.359Z,51.51
2018-07-08T00:53:48.539Z,48.10
2018-07-08T00:54:48.701Z,50.78
2018-07-08T00:55:48.871Z,48.58
2018-07-08T00:59:31.311Z,55.18
2018-07-08T01:00:31.473Z,41.50
2018-07-08T01:01:31.636Z,43.70
2018-07-08T01:02:31.800Z,45.65
2018-07-08T01:03:31.966Z,46.14
2018-07-08T01:04:32.148Z,65.43
2018-07-08T01:05:32.303Z,52.73
2018-07-08T01:06:32.462Z,64.70
2018-07-08T01:07:32.630Z,62.01
2018-07-08T01:08:32.794Z,59.57
2018-07-08T01:09:32.961Z,59.08
2018-07-08T01:10:33.128Z,58.11
2018-07-08T01:11:33.292Z,48.10
2018-07-08T01:12:33.458Z,47.12
2018-07-08T01:16:15.897Z,45.41
2018-07-08T01:17:16.071Z,42.72
2018-07-08T01:18:16.240Z,43.21
2018-07-08T01:19:16.413Z,43.70
2018-07-08T01:20:16.580Z,49.07
2018-07-08T01:21:16.739Z,47.12
2018-07-08T01:22:16.907Z,53.71
2018-07-08T01:23:17.073Z,56.64
2018-07-08T01:24:17.239Z,44.19
2018-07-08T01:25:17.408Z,47.36
2018-07-08T01:26:17.569Z,62.74
2018-07-08T01:27:17.743Z,70.31
2018-07-08T01:28:17.909Z,50.54
2018-07-08T01:29:18.079Z,50.05
2018-07-08T01:33:00.511Z,66.89
2018-07-08T01:34:00.682Z,63.96
2018-07-08T01:35:00.852Z,53.96
2018-07-08T01:36:01.023Z,50.05
2018-07-08T01:37:01.170Z,61.04
2018-07-08T01:38:01.367Z,58.84
2018-07-08T01:39:01.498Z,61.04
2018-07-08T01:40:01.676Z,61.52
2018-07-08T01:41:01.835Z,54.69
2018-07-08T01:44:44.277Z,49.32
2018-07-08T01:45:44.452Z,44.68
2018-07-08T01:46:44.583Z,47.61
2018-07-08T01:47:44.761Z,50.78
2018-07-08T01:48:44.921Z,46.63
2018-07-08T01:49:45.178Z,49.32
2018-07-08T01:50:45.283Z,47.36
2018-07-08T01:51:45.408Z,42.48
2018-07-08T01:52:45.584Z,54.69
2018-07-08T01:53:45.742Z,64.21
2018-07-08T01:54:45.915Z,49.07
2018-07-08T01:55:46.092Z,52.00
2018-07-08T01:56:46.273Z,51.03
2018-07-08T01:57:46.427Z,61.52
2018-07-08T02:01:29.150Z,59.33
2018-07-08T02:02:29.307Z,44.68
2018-07-08T02:03:29.477Z,50.29
2018-07-08T02:04:29.635Z,54.20
2018-07-08T02:05:29.810Z,59.57
2018-07-08T02:06:29.975Z,65.92
2018-07-08T02:07:30.130Z,45.41
2018-07-08T02:08:30.297Z,47.12
2018-07-08T02:09:30.462Z,50.29
2018-07-08T02:10:30.631Z,51.03
2018-07-08T02:11:30.810Z,61.04
2018-07-08T02:12:30.957Z,58.11
2018-07-08T02:13:31.124Z,43.46
2018-07-08T02:14:31.296Z,43.70
2018-07-08T02:18:13.750Z,47.85
2018-07-08T02:19:13.919Z,47.85
2018-07-08T02:20:14.086Z,46.39
2018-07-08T02:21:14.262Z,63.48
2018-07-08T02:22:14.437Z,64.94
2018-07-08T02:23:14.598Z,63.48
2018-07-08T02:24:14.762Z,46.14
2018-07-08T02:25:14.928Z,52.73
2018-07-08T02:26:15.107Z,52.49
2018-07-08T02:27:16.102Z,47.85
2018-07-08T02:28:15.392Z,47.85
2018-07-08T02:29:15.560Z,47.61
2018-07-08T02:30:15.727Z,49.07
2018-07-08T02:31:15.898Z,54.69
2018-07-08T02:34:58.359Z,53.47
2018-07-08T02:35:58.498Z,63.23
2018-07-08T02:36:58.659Z,61.52
2018-07-08T02:37:58.818Z,55.91
2018-07-08T02:38:58.989Z,40.53
2018-07-08T02:39:59.148Z,48.83
2018-07-08T02:40:59.331Z,47.85
2018-07-08T02:41:59.487Z,40.28
2018-07-08T02:42:59.648Z,50.54
2018-07-08T02:43:59.822Z,42.72
2018-07-08T02:44:59.996Z,44.68
2018-07-08T02:46:00.162Z,67.63
2018-07-08T02:47:00.319Z,46.63
2018-07-08T02:48:00.494Z,45.17
2018-07-08T02:51:43.237Z,62.01
2018-07-08T02:52:43.403Z,50.29
2018-07-08T02:53:43.567Z,65.19
2018-07-08T02:54:43.736Z,60.55
2018-07-08T02:55:43.907Z,51.03
2018-07-08T02:56:44.087Z,50.05
2018-07-08T02:57:44.240Z,51.51
2018-07-08T02:58:44.405Z,54.44
2018-07-08T02:59:44.570Z,51.76
2018-07-08T03:00:44.734Z,52.98
2018-07-08T03:01:44.903Z,52.00
2018-07-08T03:02:45.066Z,60.30
2018-07-08T03:03:45.237Z,63.96
2018-07-08T03:04:45.389Z,65.19
2018-07-08T03:10:46.200Z,65.19
2018-07-08T03:11:46.373Z,65.67
2018-07-08T03:12:46.535Z,65.92
2018-07-08T03:13:46.708Z,66.65
2018-07-08T03:14:46.875Z,64.45
2018-07-08T03:15:47.042Z,67.38
2018-07-08T03:16:47.204Z,74.46
2018-07-08T03:17:47.374Z,62.50
2018-07-08T03:18:47.544Z,60.30
2018-07-08T03:19:47.703Z,61.77
2018-07-08T03:20:47.873Z,57.37
2018-07-08T03:21:48.044Z,55.42
2018-07-08T03:22:48.205Z,53.22
2018-07-08T03:23:48.373Z,53.71
2018-07-08T03:27:30.818Z,69.82
2018-07-08T03:28:30.988Z,57.37
2018-07-08T03:29:31.138Z,62.01
2018-07-08T03:30:31.316Z,57.37
2018-07-08T03:31:31.464Z,48.34
2018-07-08T03:32:31.626Z,50.78
2018-07-08T03:33:31.939Z,64.94
2018-07-08T03:34:31.962Z,61.77
2018-07-08T03:35:32.131Z,58.59
2018-07-08T03:36:32.292Z,57.13
2018-07-08T03:37:32.456Z,56.40
2018-07-08T03:38:33.177Z,60.06
2018-07-08T03:39:32.847Z,62.01
2018-07-08T03:40:33.010Z,50.54
2018-07-08T03:44:15.452Z,63.23
2018-07-08T03:45:15.614Z,47.85
2018-07-08T03:46:15.783Z,59.81
2018-07-08T03:47:15.951Z,64.21
2018-07-08T03:48:16.103Z,48.34
2018-07-08T03:49:16.277Z,60.55
2018-07-08T03:50:16.446Z,63.96
2018-07-08T03:51:16.610Z,48.58
2018-07-08T03:52:16.779Z,49.80
2018-07-08T03:55:59.224Z,52.00
2018-07-08T03:56:59.384Z,74.22
2018-07-08T03:57:59.550Z,54.93
2018-07-08T03:58:59.707Z,54.93
2018-07-08T03:59:59.878Z,73.00
2018-07-08T04:01:00.049Z,65.19
2018-07-08T04:02:00.206Z,52.49
2018-07-08T04:03:00.379Z,50.54
2018-07-08T04:04:00.538Z,49.56
2018-07-08T04:05:00.705Z,66.65
2018-07-08T04:06:00.873Z,59.33
2018-07-08T04:07:01.033Z,59.33
2018-07-08T04:08:01.220Z,57.62
2018-07-08T04:09:01.384Z,52.00
2018-07-08T04:12:43.834Z,51.03
2018-07-08T04:13:43.999Z,47.12
2018-07-08T04:14:44.161Z,56.64
2018-07-08T04:15:44.332Z,56.64
2018-07-08T04:16:44.490Z,53.71
2018-07-08T04:17:44.668Z,61.52
2018-07-08T04:18:44.836Z,51.03
2018-07-08T04:19:45.015Z,58.35
2018-07-08T04:20:45.163Z,68.36
2018-07-08T04:21:45.328Z,58.59
2018-07-08T04:22:45.493Z,61.77
2018-07-08T04:23:45.646Z,55.42
2018-07-08T04:24:45.819Z,53.22
2018-07-08T04:25:45.986Z,54.69
2018-07-08T04:29:28.450Z,58.35
2018-07-08T04:30:28.677Z,51.76
2018-07-08T04:31:28.775Z,49.07
2018-07-08T04:32:28.936Z,49.07
2018-07-08T04:33:29.097Z,64.21
2018-07-08T04:34:29.264Z,49.32
2018-07-08T04:35:29.433Z,51.51
2018-07-08T04:36:29.602Z,60.55
2018-07-08T04:37:29.780Z,58.11
2018-07-08T04:41:02.225Z,65.19
2018-07-08T04:42:02.390Z,59.33
2018-07-08T04:43:02.563Z,51.03
2018-07-08T04:44:02.728Z,51.51
2018-07-08T04:45:02.891Z,52.00
2018-07-08T04:46:03.056Z,51.03
2018-07-08T04:47:03.220Z,52.00
2018-07-08T04:48:03.389Z,56.64
2018-07-08T04:49:03.560Z,58.35
2018-07-08T04:50:03.725Z,56.15
2018-07-08T04:51:03.894Z,57.86
2018-07-08T04:52:04.056Z,54.93
2018-07-08T04:53:04.242Z,55.42
2018-07-08T04:54:04.397Z,51.27
2018-07-08T04:57:36.856Z,58.35
2018-07-08T04:58:37.016Z,61.77
2018-07-08T04:59:37.184Z,59.33
2018-07-08T05:00:37.339Z,51.76
2018-07-08T05:01:37.504Z,52.73
2018-07-08T05:02:37.667Z,47.12
2018-07-08T05:03:37.831Z,52.49
2018-07-08T05:04:37.994Z,46.88
2018-07-08T05:05:38.165Z,48.58
2018-07-08T05:06:38.423Z,48.10
2018-07-08T05:07:38.497Z,54.20
2018-07-08T05:08:38.672Z,56.40
2018-07-08T05:09:38.850Z,56.15
2018-07-08T05:10:39.001Z,59.33
2018-07-08T05:14:21.451Z,62.50
2018-07-08T05:15:21.618Z,48.58
2018-07-08T05:16:21.799Z,51.03
2018-07-08T05:17:21.955Z,80.32
2018-07-08T05:18:22.099Z,52.98
2018-07-08T05:19:22.263Z,72.51
2018-07-08T05:20:22.495Z,64.21
2018-07-08T05:21:22.588Z,73.73
2018-07-08T05:22:22.764Z,68.60
2018-07-08T05:23:22.935Z,75.20
2018-07-08T05:24:23.098Z,91.55
2018-07-08T05:25:23.258Z,68.12
2018-07-08T05:26:23.427Z,71.78
2018-07-08T05:27:23.594Z,71.04
2018-07-08T05:32:04.353Z,55.91
2018-07-08T05:33:04.519Z,62.74
2018-07-08T05:34:04.688Z,45.90
2018-07-08T05:35:04.854Z,63.96
2018-07-08T05:36:05.019Z,65.67
2018-07-08T05:37:05.207Z,54.69
2018-07-08T05:38:05.345Z,62.26
2018-07-08T05:39:05.512Z,56.64
2018-07-08T05:40:05.677Z,61.77
2018-07-08T05:41:05.845Z,67.38
2018-07-08T05:42:06.007Z,59.81
2018-07-08T05:43:06.177Z,62.74
2018-07-08T05:44:06.342Z,61.77
2018-07-08T05:45:06.507Z,56.64
2018-07-08T05:48:49.284Z,59.57
2018-07-08T05:49:49.423Z,57.86
2018-07-08T05:50:49.620Z,48.34
2018-07-08T05:51:49.751Z,51.76
2018-07-08T05:52:49.914Z,57.62
2018-07-08T05:53:50.083Z,48.83
2018-07-08T05:54:50.243Z,56.64
2018-07-08T05:55:50.411Z,54.20
2018-07-08T05:56:50.575Z,57.86
2018-07-08T05:57:50.742Z,50.78
2018-07-08T05:58:50.910Z,50.05
2018-07-08T05:59:51.076Z,57.86
2018-07-08T06:00:51.240Z,61.28
2018-07-08T06:01:51.412Z,61.04
2018-07-08T06:05:33.850Z,66.65
2018-07-08T06:06:34.016Z,62.01
2018-07-08T06:07:34.174Z,54.93
2018-07-08T06:08:34.347Z,54.20
2018-07-08T06:09:34.507Z,52.98
2018-07-08T06:10:34.684Z,54.93
2018-07-08T06:11:34.849Z,54.20
2018-07-08T06:12:35.015Z,61.77
2018-07-08T06:13:35.182Z,62.74
2018-07-08T06:17:18.069Z,50.29
2018-07-08T06:18:18.246Z,53.71
2018-07-08T06:19:18.384Z,51.76
2018-07-08T06:20:18.575Z,61.28
2018-07-08T06:21:18.734Z,65.19
2018-07-08T06:22:18.983Z,49.07
2018-07-08T06:23:19.100Z,58.11
2018-07-08T06:24:19.316Z,55.18
2018-07-08T06:25:27.317Z,63.48
2018-07-08T06:26:19.610Z,58.84
2018-07-08T06:27:19.761Z,66.16
2018-07-08T06:28:19.934Z,59.81
2018-07-08T06:29:20.110Z,51.27
2018-07-08T06:30:20.283Z,65.19
2018-07-08T06:42:51.211Z,64.94
2018-07-08T06:43:51.381Z,61.04
2018-07-08T06:44:51.550Z,61.04
2018-07-08T06:45:51.714Z,59.57
2018-07-08T06:46:51.890Z,56.15
2018-07-08T06:47:52.046Z,59.33
2018-07-08T06:48:52.235Z,66.41
2018-07-08T06:49:52.405Z,60.79
2018-07-08T06:50:52.567Z,53.96
2018-07-08T06:51:52.749Z,61.04
2018-07-08T06:52:52.908Z,64.45
2018-07-08T06:53:53.077Z,66.16
2018-07-08T06:54:53.248Z,47.12
2018-07-08T06:55:53.412Z,73.00
2018-07-08T06:59:36.161Z,63.48
2018-07-08T07:00:36.337Z,56.88
2018-07-08T07:01:36.499Z,73.49
2018-07-08T07:02:36.676Z,55.18
2018-07-08T07:03:36.851Z,83.01
2018-07-08T07:04:37.009Z,51.76
2018-07-08T07:05:37.176Z,63.23
2018-07-08T07:06:37.352Z,68.12
2018-07-08T07:07:37.513Z,51.76
2018-07-08T07:08:37.696Z,61.77
2018-07-08T07:09:37.858Z,63.96
2018-07-08T07:10:38.029Z,60.30
2018-07-08T07:11:38.194Z,59.33
2018-07-08T07:12:38.363Z,59.08
2018-07-08T07:16:20.812Z,59.81
2018-07-08T07:17:21.027Z,69.09
2018-07-08T07:18:21.147Z,69.34
2018-07-08T07:19:21.318Z,72.27
2018-07-08T07:20:21.488Z,75.68
2018-07-08T07:21:21.660Z,74.71
2018-07-08T07:22:21.820Z,71.29
2018-07-08T07:23:21.989Z,72.75
2018-07-08T07:24:22.154Z,70.07
2018-07-08T07:25:22.319Z,63.96
2018-07-08T07:26:22.495Z,63.72
2018-07-08T07:27:23.172Z,65.67
2018-07-08T07:28:22.839Z,66.89
2018-07-08T07:29:23.007Z,76.66
2018-07-08T07:33:05.456Z,65.43
2018-07-08T07:34:05.633Z,70.31
2018-07-08T07:35:05.803Z,81.54
2018-07-08T07:36:05.968Z,75.20
2018-07-08T07:37:06.215Z,70.56
2018-07-08T07:38:06.310Z,82.76
2018-07-08T07:39:06.469Z,74.95
2018-07-08T07:40:06.631Z,66.65
2018-07-08T07:41:06.794Z,65.92
2018-07-08T07:42:06.954Z,67.38
2018-07-08T07:43:07.141Z,62.99
2018-07-08T07:44:07.820Z,68.60
2018-07-08T07:45:07.498Z,71.78
2018-07-08T07:46:07.673Z,66.65
2018-07-08T07:49:50.421Z,73.73
2018-07-08T07:50:50.572Z,64.21
2018-07-08T07:51:50.753Z,60.55
2018-07-08T07:52:50.923Z,63.96
2018-07-08T07:53:51.099Z,64.21
2018-07-08T07:54:51.288Z,84.23
2018-07-08T07:55:51.455Z,62.50
2018-07-08T07:56:51.621Z,75.93
2018-07-08T07:57:51.791Z,65.92
2018-07-08T07:58:51.961Z,72.02
2018-07-08T07:59:52.129Z,61.77
2018-07-08T08:00:52.298Z,76.66
2018-07-08T08:01:52.470Z,64.70
2018-07-08T08:02:52.639Z,64.45
2018-07-08T08:06:35.087Z,57.37
2018-07-08T08:07:35.270Z,62.99
2018-07-08T08:08:35.479Z,67.63
2018-07-08T08:09:35.593Z,61.77
2018-07-08T08:10:35.818Z,67.38
2018-07-08T08:11:35.930Z,54.44
2018-07-08T08:12:36.096Z,76.42
2018-07-08T08:13:36.270Z,63.72
2018-07-08T08:14:36.440Z,76.42
2018-07-08T08:15:36.613Z,61.52
2018-07-08T08:16:36.778Z,65.19
2018-07-08T08:17:36.949Z,61.52
2018-07-08T08:18:37.116Z,62.01
2018-07-08T08:19:37.288Z,59.81
2018-07-08T08:23:19.741Z,56.40
2018-07-08T08:24:20.595Z,62.99
2018-07-08T08:25:20.021Z,65.43
2018-07-08T08:26:20.202Z,62.01
2018-07-08T08:27:20.361Z,59.81
2018-07-08T08:28:20.537Z,62.01
2018-07-08T08:29:20.700Z,54.44
2018-07-08T08:30:20.867Z,63.72
2018-07-08T08:31:21.038Z,59.57
2018-07-08T08:35:03.513Z,64.94
2018-07-08T08:36:03.676Z,71.78
2018-07-08T08:37:03.846Z,67.38
2018-07-08T08:38:04.044Z,65.19
2018-07-08T08:39:04.185Z,66.41
2018-07-08T08:40:04.358Z,66.16
2018-07-08T08:41:04.525Z,69.82
2018-07-08T08:42:04.692Z,56.40
2018-07-08T08:43:04.865Z,61.28
2018-07-08T08:44:05.035Z,66.41
2018-07-08T08:45:05.206Z,72.51
2018-07-08T08:46:05.394Z,61.04
2018-07-08T08:47:05.544Z,60.55
2018-07-08T08:48:05.721Z,72.75
2018-07-08T08:51:48.180Z,63.48
2018-07-08T08:52:48.353Z,60.79
2018-07-08T08:53:48.526Z,68.36
2018-07-08T08:54:48.694Z,71.29
2018-07-08T08:55:48.866Z,59.33
2018-07-08T08:56:49.036Z,58.11
2018-07-08T08:57:49.208Z,78.13
2018-07-08T08:58:49.378Z,70.80
2018-07-08T08:59:49.551Z,61.04
2018-07-08T09:00:49.721Z,60.30
2018-07-08T09:01:49.893Z,48.83
2018-07-08T09:02:50.068Z,63.72
2018-07-08T09:03:50.243Z,59.81
2018-07-08T09:04:50.417Z,58.35
2018-07-08T09:10:11.124Z,59.57
2018-07-08T09:11:11.288Z,61.52
2018-07-08T09:12:11.463Z,79.59
2018-07-08T09:13:11.634Z,67.14
2018-07-08T09:14:11.810Z,66.65
2018-07-08T09:15:11.979Z,63.48
2018-07-08T09:16:12.145Z,71.78
2018-07-08T09:17:12.326Z,71.04
2018-07-08T09:18:12.488Z,67.63
2018-07-08T09:21:54.956Z,61.28
2018-07-08T09:22:55.139Z,61.28
2018-07-08T09:23:55.321Z,62.74
2018-07-08T09:24:55.473Z,59.08
2018-07-08T09:25:55.666Z,67.38
2018-07-08T09:26:55.821Z,72.02
2018-07-08T09:27:55.992Z,71.53
2018-07-08T09:28:56.165Z,65.92
2018-07-08T09:29:56.327Z,71.78
2018-07-08T09:30:56.495Z,71.29
2018-07-08T09:31:56.672Z,65.67
2018-07-08T09:32:56.843Z,67.63
2018-07-08T09:33:57.011Z,62.99
2018-07-08T09:35:04.865Z,67.14
2018-07-08T09:35:57.388Z,73.49
2018-07-08T09:36:57.559Z,66.41
2018-07-08T09:37:57.742Z,68.12
2018-07-08T09:38:58.190Z,65.92
2018-07-08T09:39:58.080Z,66.41
2018-07-08T09:40:58.249Z,83.50
2018-07-08T09:41:58.417Z,74.71
2018-07-08T09:42:58.582Z,64.70
2018-07-08T09:43:58.756Z,73.49
2018-07-08T09:44:59.750Z,65.19
2018-07-08T09:48:42.385Z,71.78
2018-07-08T09:49:42.573Z,81.54
2018-07-08T09:50:42.748Z,75.93
2018-07-08T09:51:42.920Z,68.60
2018-07-08T09:52:43.194Z,70.31
2018-07-08T09:53:43.249Z,69.58
2018-07-08T09:54:50.881Z,68.36
2018-07-08T09:55:43.550Z,69.58
2018-07-08T09:56:43.718Z,72.27
2018-07-08T09:57:43.887Z,77.88
2018-07-08T09:58:44.066Z,71.04
2018-07-08T09:59:44.242Z,66.65
2018-07-08T10:00:44.409Z,65.67
2018-07-08T10:01:44.575Z,62.99
2018-07-08T10:02:44.747Z,70.80
2018-07-08T10:03:44.911Z,67.63
2018-07-08T10:04:45.101Z,64.21
2018-07-08T10:05:45.256Z,65.43
2018-07-08T10:06:46.257Z,68.60
2018-07-08T10:07:45.552Z,62.01
2018-07-08T10:08:45.766Z,62.50
2018-07-08T10:12:28.177Z,64.21
2018-07-08T10:13:28.349Z,70.31
2018-07-08T10:14:28.514Z,66.16
2018-07-08T10:15:28.682Z,72.27
2018-07-08T10:16:28.967Z,63.72
2018-07-08T10:17:36.690Z,66.65
2018-07-08T10:18:29.228Z,71.29
2018-07-08T10:19:29.411Z,66.89
2018-07-08T10:20:29.567Z,68.85
2018-07-08T10:21:29.800Z,75.93
2018-07-08T10:22:29.903Z,69.58
2018-07-08T10:23:30.079Z,68.12
2018-07-08T10:24:30.238Z,67.63
2018-07-08T10:25:30.436Z,65.43
2018-07-08T10:26:30.601Z,72.51
2018-07-08T10:27:31.499Z,96.92
2018-07-08T10:33:41.585Z,71.29
2018-07-08T10:34:41.759Z,78.86
2018-07-08T10:35:41.935Z,70.80
2018-07-08T10:36:42.100Z,74.71
2018-07-08T10:37:42.272Z,68.85
2018-07-08T10:38:42.442Z,69.82
2018-07-08T10:39:42.610Z,75.20
2018-07-08T10:40:42.785Z,73.73
2018-07-08T10:41:42.945Z,65.43
2018-07-08T10:45:25.400Z,64.70
2018-07-08T10:46:25.573Z,62.74
2018-07-08T10:47:25.745Z,68.12
2018-07-08T10:48:25.931Z,64.70
2018-07-08T10:49:26.105Z,67.38
2018-07-08T10:50:26.277Z,70.80
2018-07-08T10:51:26.449Z,65.43
2018-07-08T10:52:26.622Z,65.19
2018-07-08T10:53:28.755Z,74.95
2018-07-08T10:54:26.924Z,73.24
2018-07-08T10:55:35.059Z,67.87
2018-07-08T10:56:27.222Z,66.65
2018-07-08T10:57:27.389Z,71.53
2018-07-08T10:58:27.562Z,73.24
2018-07-08T10:59:27.731Z,67.14
2018-07-08T11:00:27.905Z,79.83
2018-07-08T11:01:28.085Z,68.12
2018-07-08T11:02:28.246Z,74.46
2018-07-08T11:03:28.441Z,77.39
2018-07-08T11:04:28.611Z,64.94
2018-07-08T11:05:29.082Z,71.53
2018-07-08T11:06:28.965Z,65.67
2018-07-08T11:07:29.137Z,71.29
2018-07-08T11:08:29.322Z,71.29
2018-07-08T11:09:29.496Z,72.27
2018-07-08T11:14:12.112Z,66.41
2018-07-08T11:15:19.748Z,67.38
2018-07-08T11:16:12.431Z,75.93
2018-07-08T11:17:12.593Z,66.41
2018-07-08T11:18:12.787Z,67.87
2018-07-08T11:19:12.931Z,64.21
2018-07-08T11:20:13.105Z,69.58
2018-07-08T11:21:13.271Z,81.05
2018-07-08T11:22:13.437Z,65.67
2018-07-08T11:23:13.613Z,61.52
2018-07-08T11:24:13.793Z,69.82
2018-07-08T11:25:13.971Z,76.17
2018-07-08T11:26:22.107Z,76.42
2018-07-08T11:27:14.312Z,70.80
2018-07-08T11:28:14.431Z,65.92
2018-07-08T11:29:14.599Z,68.12
2018-07-08T11:30:14.774Z,72.51
2018-07-08T11:31:14.942Z,70.07
2018-07-08T11:32:15.114Z,66.89
2018-07-08T11:33:15.283Z,70.07
2018-07-08T11:34:15.456Z,67.63
2018-07-08T11:35:15.703Z,69.09
2018-07-08T11:36:16.513Z,67.63
2018-07-08T11:37:24.994Z,68.60
2018-07-08T11:38:16.034Z,69.34
2018-07-08T11:39:16.207Z,67.38
2018-07-08T11:40:17.029Z,67.14
2018-07-08T11:41:16.582Z,69.58
2018-07-08T11:42:16.753Z,71.29
2018-07-08T11:43:16.927Z,67.87
2018-07-08T11:44:17.096Z,73.24
2018-07-08T11:45:17.273Z,75.44
2018-07-08T11:46:25.049Z,88.62
2018-07-08T11:47:17.676Z,96.68
2018-07-08T11:48:18.182Z,68.60
2018-07-08T11:49:18.392Z,71.29
2018-07-08T11:50:18.161Z,67.87
2018-07-08T11:51:18.335Z,64.21
2018-07-08T11:52:18.526Z,69.58
2018-07-08T11:53:18.678Z,72.75
2018-07-08T11:54:18.849Z,73.00
2018-07-08T11:55:19.025Z,63.96
2018-07-08T11:56:19.188Z,66.16
2018-07-08T11:57:19.357Z,67.38
2018-07-08T11:58:19.614Z,70.56
2018-07-08T11:59:19.652Z,68.85
2018-07-08T12:00:19.827Z,72.51
2018-07-08T12:05:10.675Z,67.63
2018-07-08T12:06:10.797Z,64.94
2018-07-08T12:07:10.967Z,67.87
2018-07-08T12:08:11.151Z,75.44
2018-07-08T12:09:11.321Z,73.24
2018-07-08T12:10:11.601Z,67.63
2018-07-08T12:11:11.672Z,63.23
2018-07-08T12:12:11.843Z,70.56
2018-07-08T12:13:12.013Z,70.80
2018-07-08T12:14:12.187Z,74.22
2018-07-08T12:15:12.356Z,75.68
2018-07-08T12:16:12.533Z,69.82
2018-07-08T12:17:20.380Z,71.53
2018-07-08T12:18:12.813Z,73.00
2018-07-08T12:19:13.021Z,70.80
2018-07-08T12:20:13.237Z,72.75
2018-07-08T12:21:13.396Z,67.14
2018-07-08T12:22:13.454Z,77.64
2018-07-08T12:23:13.622Z,70.31
2018-07-08T12:24:13.797Z,62.74
2018-07-08T12:25:13.970Z,70.31
2018-07-08T12:26:14.142Z,72.27
2018-07-08T12:27:14.307Z,66.41
2018-07-08T12:28:14.497Z,65.19
2018-07-08T12:29:14.669Z,71.29
2018-07-08T12:30:14.854Z,71.04
2018-07-08T12:31:15.021Z,62.26
2018-07-08T12:37:35.823Z,63.72
2018-07-08T12:38:36.038Z,71.29
2018-07-08T12:39:36.182Z,73.97
2018-07-08T12:40:36.373Z,69.34
2018-07-08T12:41:36.534Z,77.15
2018-07-08T12:42:36.725Z,69.82
2018-07-08T12:43:36.904Z,84.72
2018-07-08T12:44:37.151Z,72.02
2018-07-08T12:45:37.235Z,82.28
2018-07-08T12:46:37.413Z,66.65
2018-07-08T12:47:37.582Z,74.95
2018-07-08T12:48:37.753Z,64.45
2018-07-08T12:49:37.925Z,63.23
2018-07-08T12:50:38.147Z,67.87
2018-07-08T13:00:29.047Z,71.29
2018-07-08T13:01:29.222Z,72.75
2018-07-08T13:02:29.390Z,73.00
2018-07-08T13:03:30.358Z,64.45
2018-07-08T13:04:29.800Z,64.70
2018-07-08T13:05:29.960Z,73.49
2018-07-08T13:06:30.167Z,63.72
2018-07-08T13:07:30.296Z,69.82
2018-07-08T13:08:30.511Z,66.16
2018-07-08T13:09:30.656Z,74.22
2018-07-08T13:10:30.837Z,71.29
2018-07-08T13:11:31.080Z,63.96
2018-07-08T13:12:31.206Z,70.80
2018-07-08T13:13:31.373Z,65.19
2018-07-08T13:17:04.291Z,71.78
2018-07-08T13:18:04.474Z,69.34
2018-07-08T13:19:04.647Z,72.02
2018-07-08T13:20:04.895Z,66.65
2018-07-08T13:21:04.999Z,71.29
2018-07-08T13:22:05.271Z,68.36
2018-07-08T13:23:05.362Z,72.75
2018-07-08T13:24:06.201Z,76.66
2018-07-08T13:25:06.687Z,65.92
2018-07-08T13:26:06.686Z,68.60
2018-07-08T13:27:05.987Z,69.09
2018-07-08T13:28:06.155Z,78.13
2018-07-08T13:29:06.337Z,67.87
2018-07-08T13:30:06.521Z,69.09
2018-07-08T13:33:39.269Z,74.71
2018-07-08T13:34:39.434Z,77.64
2018-07-08T13:35:39.631Z,65.67
2018-07-08T13:36:39.798Z,65.92
2018-07-08T13:37:39.985Z,72.02
2018-07-08T13:38:40.163Z,70.80
2018-07-08T13:39:40.363Z,68.12
2018-07-08T13:40:40.492Z,71.29
2018-07-08T13:41:40.658Z,67.87
2018-07-08T13:42:40.827Z,66.65
2018-07-08T13:43:41.009Z,71.53
2018-07-08T13:44:41.171Z,74.95
2018-07-08T13:45:41.343Z,66.41
2018-07-08T13:46:41.524Z,67.63
2018-07-08T13:50:14.024Z,79.10
2018-07-08T13:51:14.189Z,66.89
2018-07-08T13:52:14.358Z,72.75
2018-07-08T13:53:16.315Z,67.87
2018-07-08T13:54:14.737Z,82.03
2018-07-08T13:55:14.895Z,64.45
2018-07-08T13:56:15.077Z,70.80
2018-07-08T13:57:15.287Z,75.44
2018-07-08T13:58:15.487Z,67.14
2018-07-08T13:59:23.647Z,70.31
2018-07-08T14:00:15.815Z,69.58
2018-07-08T14:01:15.987Z,73.49
2018-07-08T14:02:16.223Z,69.34
2018-07-08T14:03:16.865Z,66.65
2018-07-08T14:04:16.479Z,65.43
2018-07-08T14:05:16.536Z,66.65
2018-07-08T14:06:16.707Z,69.34
2018-07-08T14:07:16.871Z,65.67
2018-07-08T14:08:17.042Z,74.46
2018-07-08T14:09:17.225Z,75.68
2018-07-08T14:10:17.378Z,69.09
2018-07-08T14:11:17.571Z,71.29
2018-07-08T14:12:17.740Z,68.60
2018-07-08T14:13:17.893Z,67.87
2018-07-08T14:16:50.652Z,78.61
2018-07-08T14:17:50.823Z,98.39
2018-07-08T14:18:51.001Z,69.09
2018-07-08T14:19:51.709Z,71.78
2018-07-08T14:20:51.469Z,73.24
2018-07-08T14:21:51.557Z,70.31
2018-07-08T14:22:51.758Z,65.43
2018-07-08T14:23:55.716Z,76.66
2018-07-08T14:24:52.075Z,71.53
2018-07-08T14:25:52.185Z,78.13
2018-07-08T14:26:52.512Z,75.93
2018-07-08T14:27:52.689Z,71.78
2018-07-08T14:28:52.707Z,70.80
2018-07-08T14:29:52.881Z,73.73
2018-07-08T14:33:25.457Z,79.35
2018-07-08T14:34:25.615Z,75.93
2018-07-08T14:35:25.785Z,65.43
2018-07-08T14:36:25.968Z,68.12
2018-07-08T14:37:26.137Z,93.99
2018-07-08T14:38:26.311Z,71.29
2018-07-08T14:39:26.518Z,62.74
2018-07-08T14:40:26.725Z,77.39
2018-07-08T14:41:26.909Z,71.78
2018-07-08T14:42:27.080Z,70.07
2018-07-08T14:43:27.252Z,69.34
2018-07-08T14:44:27.426Z,78.13
2018-07-08T14:45:27.909Z,70.80
2018-07-08T14:46:27.726Z,68.85
2018-07-08T14:50:10.128Z,63.72
2018-07-08T14:51:10.299Z,67.87
2018-07-08T14:52:11.048Z,67.38
2018-07-08T14:53:10.605Z,75.68
2018-07-08T14:54:10.785Z,72.75
2018-07-08T14:55:10.941Z,69.34
2018-07-08T14:56:12.056Z,64.45
2018-07-08T14:57:11.229Z,73.00
2018-07-08T14:58:11.390Z,77.64
2018-07-08T14:59:11.558Z,77.15
2018-07-08T15:00:11.732Z,68.85
2018-07-08T15:01:11.904Z,76.90
2018-07-08T15:02:12.075Z,76.66
2018-07-08T15:03:13.060Z,73.73
2018-07-08T15:04:12.463Z,79.10
2018-07-08T15:07:44.904Z,75.68
2018-07-08T15:08:45.073Z,73.24
2018-07-08T15:09:45.280Z,76.42
2018-07-08T15:10:45.427Z,72.75
2018-07-08T15:11:45.606Z,70.07
2018-07-08T15:12:45.769Z,67.63
2018-07-08T15:13:45.959Z,69.82
2018-07-08T15:14:46.123Z,65.19
2018-07-08T15:15:46.360Z,84.23
2018-07-08T15:19:19.098Z,72.02
2018-07-08T15:20:19.500Z,64.21
2018-07-08T15:21:26.597Z,72.02
2018-07-08T15:22:19.642Z,74.71
2018-07-08T15:23:19.805Z,69.09
2018-07-08T15:24:20.121Z,73.00
2018-07-08T15:25:20.192Z,68.85
2018-07-08T15:26:20.363Z,69.82
2018-07-08T15:27:20.543Z,67.14
2018-07-08T15:28:20.727Z,75.68
2018-07-08T15:29:20.868Z,68.60
2018-07-08T15:30:21.042Z,75.20
2018-07-08T15:31:21.214Z,66.41
2018-07-08T15:32:21.402Z,71.29
2018-07-08T15:33:21.540Z,69.34
2018-07-08T15:34:21.717Z,64.94
2018-07-08T15:35:21.891Z,78.37
2018-07-08T15:39:04.353Z,72.75
2018-07-08T15:40:04.529Z,73.00
2018-07-08T15:41:04.709Z,71.29
2018-07-08T15:42:04.893Z,63.23
2018-07-08T15:43:05.057Z,64.70